Time;durP1;ratioP1;P1;durP2;ratioP2;P2;SDS_P1;SDS_P2;PMS_P1;PMS_P2;Temp;Humidity;BMP_temperature;BMP_pressure;BME280_temperature;BME280_humidity;BME280_pressure;Samples;Min_cycle;Max_cycle;Signal;HPM_P1;HPM_P2
2021/08/02 00:01:10;;;;;;;5.03;2.63;;;14.80;99.90;;;;;;4962894;28;21270;-91
2021/08/02 00:03:46;;;;;;;4.53;2.70;;;14.80;99.90;;;;;;4965623;28;20661;-91
2021/08/02 00:06:22;;;;;;;3.07;2.77;;;14.80;99.90;;;;;;4968887;28;20657;-91
2021/08/02 00:08:57;;;;;;;3.20;2.67;;;14.80;99.90;;;;;;4965066;28;20629;-91
2021/08/02 00:11:30;;;;;;;5.00;2.33;;;14.80;99.90;;;;;;4954427;28;20657;-91
2021/08/02 00:14:00;;;;;;;9.60;2.67;;;14.80;99.90;;;;;;4961668;28;20677;-91
2021/08/02 00:16:27;;;;;;;4.60;2.40;;;14.80;99.90;;;;;;4969052;28;20765;-91
2021/08/02 00:18:55;;;;;;;2.90;2.70;;;14.90;99.90;;;;;;4967474;28;20629;-90
2021/08/02 00:21:22;;;;;;;3.27;3.03;;;14.90;99.90;;;;;;4962545;28;20622;-89
2021/08/02 00:23:49;;;;;;;3.47;3.17;;;14.80;99.90;;;;;;4963740;28;20630;-91
2021/08/02 00:26:16;;;;;;;4.87;2.43;;;14.90;99.90;;;;;;4967926;28;20657;-90
2021/08/02 00:28:44;;;;;;;5.60;2.80;;;14.90;99.90;;;;;;4962451;28;20638;-90
2021/08/02 00:31:13;;;;;;;3.03;2.70;;;14.90;99.90;;;;;;4964734;28;20629;-88
2021/08/02 00:33:40;;;;;;;3.63;2.43;;;14.90;99.90;;;;;;4966671;28;20669;-89
2021/08/02 00:36:13;;;;;;;3.57;2.80;;;14.90;99.90;;;;;;4964226;28;20669;-90
2021/08/02 00:38:46;;;;;;;4.97;2.30;;;15.00;99.90;;;;;;4965635;28;20633;-90
2021/08/02 00:41:30;;;;;;;4.43;2.57;;;15.00;99.90;;;;;;4966347;28;20644;-90
2021/08/02 00:44:39;;;;;;;2.70;2.50;;;15.00;99.90;;;;;;4958867;28;20628;-90
2021/08/02 00:47:12;;;;;;;3.73;2.20;;;15.00;99.90;;;;;;4962373;28;20650;-89
2021/08/02 00:49:48;;;;;;;2.47;2.20;;;15.10;99.90;;;;;;4966832;28;20618;-89
2021/08/02 00:52:16;;;;;;;2.90;2.70;;;15.10;99.90;;;;;;4961067;28;20622;-89
2021/08/02 00:54:45;;;;;;;5.80;2.47;;;15.00;99.90;;;;;;4969053;28;20669;-90
2021/08/02 00:57:13;;;;;;;5.60;2.90;;;15.00;99.90;;;;;;4940954;28;20653;-92
2021/08/02 00:59:45;;;;;;;2.47;2.10;;;15.00;99.90;;;;;;4963661;28;20630;-90
2021/08/02 01:02:13;;;;;;;3.60;2.80;;;15.10;99.90;;;;;;4961711;28;20630;-89
2021/08/02 01:04:43;;;;;;;3.00;2.70;;;15.00;99.90;;;;;;4966554;28;20633;-91
2021/08/02 01:07:12;;;;;;;3.37;2.50;;;15.00;99.90;;;;;;4965091;28;20657;-90
2021/08/02 01:09:43;;;;;;;2.63;2.20;;;15.00;99.90;;;;;;4963391;28;20665;-90
2021/08/02 01:12:11;;;;;;;7.47;2.50;;;15.00;99.90;;;;;;4967042;28;20975;-90
2021/08/02 01:14:39;;;;;;;4.40;2.80;;;15.00;99.90;;;;;;4960680;28;20733;-89
2021/08/02 01:17:07;;;;;;;3.20;2.53;;;15.00;99.90;;;;;;4964219;28;20656;-89
2021/08/02 01:19:36;;;;;;;2.67;2.40;;;15.10;99.90;;;;;;4966718;28;20640;-90
2021/08/02 01:22:04;;;;;;;2.60;2.40;;;15.00;99.90;;;;;;4968020;28;20629;-90
2021/08/02 01:24:36;;;;;;;2.60;2.40;;;15.10;99.90;;;;;;4964605;28;20653;-89
2021/08/02 01:27:43;;;;;;;2.63;2.43;;;15.10;99.90;;;;;;4957168;28;21249;-90
2021/08/02 01:30:24;;;;;;;4.30;2.77;;;15.10;99.90;;;;;;4960479;28;20636;-91
2021/08/02 01:32:52;;;;;;;2.93;2.50;;;15.10;99.90;;;;;;4967401;28;20633;-92
2021/08/02 01:35:20;;;;;;;3.87;2.10;;;15.10;99.90;;;;;;4965061;28;20662;-92
2021/08/02 01:37:48;;;;;;;3.10;2.43;;;15.10;99.90;;;;;;4963408;28;20634;-92
2021/08/02 01:40:16;;;;;;;4.07;2.73;;;15.10;99.90;;;;;;4965760;28;20703;-92
2021/08/02 01:42:44;;;;;;;5.10;2.67;;;15.00;99.90;;;;;;4962137;28;20639;-92
2021/08/02 01:45:11;;;;;;;2.97;2.60;;;15.10;99.90;;;;;;4964234;28;20632;-92
2021/08/02 01:48:05;;;;;;;2.57;2.33;;;15.00;99.90;;;;;;4967298;28;20621;-92
2021/08/02 01:50:40;;;;;;;2.50;2.30;;;15.10;99.90;;;;;;4963714;28;20637;-92
2021/08/02 01:53:17;;;;;;;3.87;2.50;;;15.10;99.90;;;;;;4963186;28;20639;-93
2021/08/02 01:55:51;;;;;;;9.80;3.43;;;15.00;99.90;;;;;;4964983;28;21631;-91
2021/08/02 01:58:18;;;;;;;4.60;2.83;;;15.00;99.90;;;;;;4964788;28;20596;-92
2021/08/02 02:00:49;;;;;;;4.60;2.40;;;15.10;99.90;;;;;;4957599;28;20627;-92
2021/08/02 02:03:20;;;;;;;3.33;2.57;;;15.10;99.90;;;;;;4965440;28;20653;-92
2021/08/02 02:05:52;;;;;;;3.17;2.90;;;15.10;99.90;;;;;;4960526;28;20656;-91
2021/08/02 02:08:23;;;;;;;2.80;2.60;;;15.10;99.90;;;;;;4960301;28;20625;-91
2021/08/02 02:10:55;;;;;;;2.60;2.40;;;15.10;99.90;;;;;;4966232;28;20656;-91
2021/08/02 02:13:28;;;;;;;3.50;2.57;;;15.10;99.90;;;;;;4963180;28;20996;-91
2021/08/02 02:15:58;;;;;;;2.53;2.33;;;15.10;99.90;;;;;;4963045;28;21232;-91
2021/08/02 02:18:27;;;;;;;3.37;2.67;;;15.10;99.90;;;;;;4960353;28;20645;-92
2021/08/02 02:20:55;;;;;;;4.30;2.90;;;15.10;99.90;;;;;;4966699;28;20645;-92
2021/08/02 02:23:22;;;;;;;6.77;2.80;;;15.00;99.90;;;;;;4966833;28;20638;-93
2021/08/02 02:25:51;;;;;;;3.50;3.00;;;15.10;99.90;;;;;;4970894;28;20687;-92
2021/08/02 02:28:21;;;;;;;3.77;2.83;;;15.10;99.90;;;;;;4968230;28;21177;-92
2021/08/02 02:30:50;;;;;;;4.23;2.63;;;15.10;99.90;;;;;;4967332;28;20629;-90
2021/08/02 02:33:18;;;;;;;4.23;2.60;;;15.10;99.90;;;;;;4970313;28;20673;-91
2021/08/02 02:35:48;;;;;;;4.47;3.20;;;15.10;99.90;;;;;;4969358;28;21260;-89
2021/08/02 02:38:17;;;;;;;3.40;2.40;;;15.10;99.90;;;;;;4965431;28;21232;-89
2021/08/02 02:40:46;;;;;;;5.57;2.87;;;15.10;99.90;;;;;;4964233;28;20637;-90
2021/08/02 02:43:15;;;;;;;6.07;2.77;;;15.10;99.90;;;;;;4964900;28;20632;-92
2021/08/02 02:45:45;;;;;;;6.60;3.00;;;15.10;99.90;;;;;;4970199;28;20653;-92
2021/08/02 02:48:14;;;;;;;4.03;2.30;;;15.10;99.90;;;;;;4971324;28;20652;-91
2021/08/02 02:50:42;;;;;;;4.73;2.93;;;15.20;99.90;;;;;;4968257;28;20642;-92
2021/08/02 02:53:11;;;;;;;3.23;2.50;;;15.10;99.90;;;;;;4966139;28;20630;-93
2021/08/02 02:55:39;;;;;;;3.37;2.90;;;15.10;99.90;;;;;;4972935;28;20695;-93
2021/08/02 02:58:07;;;;;;;4.20;2.40;;;15.10;99.90;;;;;;4970738;28;20633;-92
2021/08/02 03:00:37;;;;;;;3.53;2.40;;;15.10;99.90;;;;;;4949437;28;20625;-92
2021/08/02 03:03:04;;;;;;;7.40;2.70;;;15.10;99.90;;;;;;4970149;28;21149;-93
2021/08/02 03:05:35;;;;;;;2.73;2.37;;;15.10;99.90;;;;;;4970425;28;20645;-91
2021/08/02 03:08:05;;;;;;;4.13;3.20;;;15.10;99.90;;;;;;4970800;28;21183;-91
2021/08/02 03:10:33;;;;;;;4.50;2.53;;;15.10;99.90;;;;;;4967712;28;20639;-91
2021/08/02 03:13:02;;;;;;;3.30;2.23;;;15.10;99.90;;;;;;4969094;28;20660;-91
2021/08/02 03:15:28;;;;;;;3.43;2.40;;;15.10;99.90;;;;;;4971155;28;20695;-91
2021/08/02 03:17:58;;;;;;;5.10;2.83;;;15.10;99.90;;;;;;4967422;28;20629;-90
2021/08/02 03:20:26;;;;;;;3.33;3.00;;;15.00;99.90;;;;;;4965751;28;20630;-91
2021/08/02 03:23:04;;;;;;;3.10;2.70;;;15.10;99.90;;;;;;4970140;28;20636;-91
2021/08/02 03:25:35;;;;;;;6.57;2.90;;;15.00;99.90;;;;;;4973264;28;20650;-91
2021/08/02 03:28:07;;;;;;;7.70;2.93;;;15.00;99.90;;;;;;4968262;28;20633;-90
2021/08/02 03:30:37;;;;;;;4.00;2.97;;;15.00;99.90;;;;;;4967770;28;20638;-92
2021/08/02 03:33:10;;;;;;;3.70;2.87;;;15.00;99.90;;;;;;4969631;28;20623;-95
2021/08/02 03:35:44;;;;;;;3.50;2.53;;;15.00;99.90;;;;;;4971798;28;20677;-95
2021/08/02 03:38:13;;;;;;;3.30;2.37;;;15.00;99.90;;;;;;4969753;28;20617;-93
2021/08/02 03:40:41;;;;;;;3.17;2.87;;;14.90;99.90;;;;;;4961720;28;20646;-93
2021/08/02 03:43:11;;;;;;;8.43;3.10;;;14.90;99.90;;;;;;4971826;28;20617;-95
2021/08/02 03:45:39;;;;;;;5.97;3.00;;;14.90;99.90;;;;;;4971327;28;20729;-91
2021/08/02 03:48:09;;;;;;;3.00;2.70;;;14.90;99.90;;;;;;4971442;28;21175;-91
2021/08/02 03:50:37;;;;;;;4.30;2.90;;;14.90;99.90;;;;;;4967392;28;20622;-91
2021/08/02 03:53:04;;;;;;;3.70;2.70;;;14.90;99.90;;;;;;4964468;28;20617;-91
2021/08/02 03:55:33;;;;;;;4.23;2.50;;;14.90;99.90;;;;;;4966874;28;20669;-91
2021/08/02 03:58:00;;;;;;;6.70;2.90;;;14.90;99.90;;;;;;4982824;28;21193;-91
2021/08/02 04:00:27;;;;;;;5.33;3.00;;;14.90;99.90;;;;;;4966489;28;20641;-90
2021/08/02 04:02:54;;;;;;;4.27;2.90;;;14.90;99.90;;;;;;4967805;28;21153;-91
2021/08/02 04:05:22;;;;;;;5.50;2.53;;;14.90;99.90;;;;;;4965459;28;20693;-91
2021/08/02 04:07:50;;;;;;;3.30;2.60;;;14.90;99.90;;;;;;4964403;28;20652;-90
2021/08/02 04:10:17;;;;;;;7.70;3.03;;;15.00;99.90;;;;;;4969336;28;20626;-91
2021/08/02 04:12:44;;;;;;;5.50;2.70;;;14.90;99.90;;;;;;4965394;28;20633;-91
2021/08/02 04:15:11;;;;;;;5.10;2.33;;;15.00;99.90;;;;;;4966259;28;21034;-89
2021/08/02 04:17:39;;;;;;;2.73;2.53;;;14.90;99.90;;;;;;4965442;28;20742;-91
2021/08/02 04:20:07;;;;;;;5.73;3.20;;;15.00;99.90;;;;;;4965196;28;20621;-92
2021/08/02 04:22:36;;;;;;;2.93;2.30;;;15.00;99.90;;;;;;4966366;28;20644;-92
2021/08/02 04:25:03;;;;;;;2.77;2.40;;;15.00;99.90;;;;;;4965664;28;20628;-92
2021/08/02 04:27:30;;;;;;;4.43;3.00;;;15.00;99.90;;;;;;4957873;28;20709;-92
2021/08/02 04:29:57;;;;;;;4.40;2.47;;;15.00;99.90;;;;;;4963727;28;20616;-90
2021/08/02 04:32:23;;;;;;;4.80;2.33;;;15.10;99.90;;;;;;4967717;28;20633;-90
2021/08/02 04:34:50;;;;;;;5.03;2.63;;;15.10;99.90;;;;;;4965016;28;20661;-91
2021/08/02 04:37:17;;;;;;;3.90;2.80;;;15.10;99.90;;;;;;4966861;28;20648;-92
2021/08/02 04:39:45;;;;;;;5.53;3.67;;;15.10;99.90;;;;;;4967005;28;20718;-93
2021/08/02 04:42:12;;;;;;;2.80;2.60;;;15.20;99.90;;;;;;4965914;28;20630;-93
2021/08/02 04:44:39;;;;;;;3.47;2.60;;;15.20;99.90;;;;;;4965950;28;20701;-93
2021/08/02 04:47:06;;;;;;;5.33;2.73;;;15.20;99.90;;;;;;4965804;28;20664;-94
2021/08/02 04:49:33;;;;;;;2.97;2.53;;;15.20;99.90;;;;;;4964094;28;20641;-92
2021/08/02 04:52:00;;;;;;;6.30;3.10;;;15.20;99.90;;;;;;4964973;28;21153;-91
2021/08/02 04:54:27;;;;;;;3.00;2.80;;;15.30;99.90;;;;;;4962754;28;20976;-94
2021/08/02 04:56:55;;;;;;;4.40;2.90;;;15.30;99.90;;;;;;4962686;28;21240;-93
2021/08/02 04:59:22;;;;;;;3.20;2.30;;;15.30;99.90;;;;;;4962830;28;20627;-93
2021/08/02 05:01:51;;;;;;;3.13;2.70;;;15.30;99.90;;;;;;4962129;28;20629;-92
2021/08/02 05:04:18;;;;;;;5.23;2.57;;;15.40;99.90;;;;;;4966074;28;21208;-92
2021/08/02 05:06:45;;;;;;;3.20;2.70;;;15.50;99.90;;;;;;4960267;28;21035;-88
2021/08/02 05:09:12;;;;;;;4.20;2.17;;;15.50;99.90;;;;;;4962555;28;20649;-88
2021/08/02 05:11:38;;;;;;;4.30;2.37;;;15.50;99.90;;;;;;4961115;28;21017;-88
2021/08/02 05:14:07;;;;;;;3.53;2.57;;;15.50;99.90;;;;;;4957428;28;20625;-89
2021/08/02 05:16:34;;;;;;;5.13;2.53;;;15.60;99.90;;;;;;4959035;28;20689;-90
2021/08/02 05:19:01;;;;;;;3.30;3.00;;;15.60;99.90;;;;;;4967021;28;20640;-91
2021/08/02 05:21:27;;;;;;;5.90;2.70;;;15.60;99.90;;;;;;4961856;28;20634;-92
2021/08/02 05:23:55;;;;;;;4.13;2.70;;;15.70;99.90;;;;;;4965442;28;20595;-91
2021/08/02 05:26:21;;;;;;;6.60;2.47;;;15.70;99.90;;;;;;4962332;28;20658;-93
2021/08/02 05:28:48;;;;;;;11.33;3.40;;;15.70;99.90;;;;;;4960343;28;20642;-93
2021/08/02 05:31:16;;;;;;;2.83;2.53;;;15.70;99.90;;;;;;4959585;28;20633;-95
2021/08/02 05:33:43;;;;;;;5.00;3.00;;;15.80;99.90;;;;;;4966410;28;21173;-94
2021/08/02 05:36:10;;;;;;;5.87;2.33;;;15.90;99.90;;;;;;4960730;28;20665;-94
2021/08/02 05:38:39;;;;;;;3.73;2.43;;;15.90;99.90;;;;;;4963727;28;20649;-94
2021/08/02 05:41:07;;;;;;;3.13;2.87;;;15.90;99.90;;;;;;4962185;28;21196;-90
2021/08/02 05:43:34;;;;;;;7.13;3.03;;;16.00;99.90;;;;;;4964338;28;20629;-91
2021/08/02 05:46:11;;;;;;;3.53;2.80;;;16.00;99.90;;;;;;4967270;28;20998;-95
2021/08/02 05:48:39;;;;;;;4.03;2.73;;;16.00;99.90;;;;;;4965588;28;20642;-93
2021/08/02 05:51:06;;;;;;;2.77;2.57;;;15.90;99.90;;;;;;4966598;28;21165;-92
2021/08/02 05:53:33;;;;;;;6.63;2.70;;;16.00;99.90;;;;;;4966891;28;20648;-92
2021/08/02 05:55:59;;;;;;;3.03;2.40;;;16.00;99.90;;;;;;4964184;28;20667;-91
2021/08/02 05:58:26;;;;;;;2.43;2.20;;;16.00;99.90;;;;;;4964260;28;20678;-91
2021/08/02 06:00:53;;;;;;;3.43;2.40;;;16.00;99.90;;;;;;4962892;28;20598;-91
2021/08/02 06:03:21;;;;;;;3.13;2.40;;;16.00;99.90;;;;;;4972451;28;20622;-90
2021/08/02 06:05:50;;;;;;;6.43;2.27;;;16.00;99.90;;;;;;4971387;28;20621;-95
2021/08/02 06:08:17;;;;;;;4.03;3.00;;;16.00;99.90;;;;;;4964010;28;20672;-86
2021/08/02 06:10:44;;;;;;;3.10;2.67;;;16.00;99.90;;;;;;4968059;28;20629;-87
2021/08/02 06:13:11;;;;;;;2.40;2.20;;;16.10;99.90;;;;;;4968532;28;20625;-88
2021/08/02 06:15:37;;;;;;;1.93;1.83;;;16.10;99.90;;;;;;4967960;28;20753;-87
2021/08/02 06:18:04;;;;;;;3.93;2.40;;;16.20;99.90;;;;;;4967394;28;20645;-87
2021/08/02 06:20:31;;;;;;;2.53;2.33;;;16.20;99.90;;;;;;4965559;28;20633;-88
2021/08/02 06:22:59;;;;;;;2.83;2.63;;;16.20;99.90;;;;;;4967795;28;20633;-88
2021/08/02 06:25:26;;;;;;;2.47;2.27;;;16.30;99.90;;;;;;4965986;28;20638;-87
2021/08/02 06:27:53;;;;;;;4.97;2.50;;;16.30;99.90;;;;;;4961703;28;20696;-87
2021/08/02 06:30:19;;;;;;;3.20;2.47;;;16.30;99.90;;;;;;4963929;28;20644;-87
2021/08/02 06:32:46;;;;;;;3.60;2.33;;;16.40;99.90;;;;;;4958018;28;20652;-87
2021/08/02 06:35:13;;;;;;;2.97;2.77;;;16.40;99.90;;;;;;4961322;28;20622;-87
2021/08/02 06:37:40;;;;;;;2.53;2.33;;;16.50;99.90;;;;;;4960062;28;20658;-87
2021/08/02 06:40:11;;;;;;;4.83;2.10;;;16.50;99.90;;;;;;4966354;28;20633;-88
2021/08/02 06:42:38;;;;;;;2.60;2.03;;;16.60;99.90;;;;;;4961658;28;20630;-88
2021/08/02 06:45:06;;;;;;;3.10;2.03;;;16.60;99.90;;;;;;4965272;28;20610;-87
2021/08/02 06:47:33;;;;;;;2.40;2.13;;;16.70;99.90;;;;;;4963072;28;20681;-88
2021/08/02 06:49:59;;;;;;;2.90;2.20;;;16.80;99.90;;;;;;4965657;28;20629;-87
2021/08/02 06:52:26;;;;;;;5.63;2.37;;;16.90;99.90;;;;;;4957068;28;20638;-87
2021/08/02 06:54:53;;;;;;;4.37;2.20;;;17.00;99.90;;;;;;4962252;28;20626;-88
2021/08/02 06:57:21;;;;;;;4.83;2.10;;;17.10;99.90;;;;;;4965762;28;20704;-87
2021/08/02 06:59:48;;;;;;;9.53;2.90;;;17.20;99.90;;;;;;4961881;28;20634;-88
2021/08/02 07:02:15;;;;;;;5.37;2.27;;;17.30;99.90;;;;;;4968979;28;20644;-88
2021/08/02 07:04:42;;;;;;;5.40;2.70;;;17.30;99.90;;;;;;4962959;28;20649;-87
2021/08/02 07:07:08;;;;;;;4.10;2.33;;;17.40;99.90;;;;;;4969439;28;20657;-88
2021/08/02 07:09:36;;;;;;;3.83;2.00;;;17.50;99.90;;;;;;4967470;28;20640;-88
2021/08/02 07:12:03;;;;;;;3.90;2.40;;;17.60;99.90;;;;;;4966723;28;20621;-88
2021/08/02 07:14:31;;;;;;;6.30;2.20;;;17.70;99.90;;;;;;4964267;28;20672;-89
2021/08/02 07:16:58;;;;;;;2.43;2.27;;;17.80;99.90;;;;;;4965075;28;20685;-88
2021/08/02 07:19:25;;;;;;;3.57;2.73;;;17.80;99.90;;;;;;4965125;28;20666;-88
2021/08/02 07:21:52;;;;;;;3.60;2.13;;;17.90;99.90;;;;;;4968111;28;20622;-88
2021/08/02 07:24:22;;;;;;;4.50;1.87;;;18.00;99.90;;;;;;4959577;28;21544;-88
2021/08/02 07:26:48;;;;;;;4.73;2.40;;;18.10;99.90;;;;;;4961882;28;20676;-88
2021/08/02 07:29:15;;;;;;;4.63;2.00;;;18.20;99.90;;;;;;4966291;28;20631;-88
2021/08/02 07:31:43;;;;;;;3.27;1.90;;;18.30;99.90;;;;;;4966224;28;20666;-88
2021/08/02 07:34:10;;;;;;;4.87;2.10;;;18.40;99.90;;;;;;4968838;28;20630;-88
2021/08/02 07:36:37;;;;;;;2.20;1.93;;;18.40;99.90;;;;;;4967129;28;21046;-88
2021/08/02 07:39:04;;;;;;;2.30;2.10;;;18.40;99.90;;;;;;4968330;28;20634;-88
2021/08/02 07:41:31;;;;;;;3.47;2.10;;;18.50;99.90;;;;;;4964402;28;20649;-88
2021/08/02 07:43:57;;;;;;;3.33;2.07;;;18.60;99.90;;;;;;4968092;28;20664;-88
2021/08/02 07:46:24;;;;;;;2.50;1.60;;;18.70;99.90;;;;;;4963583;28;20996;-87
2021/08/02 07:48:52;;;;;;;2.30;2.10;;;18.90;99.90;;;;;;4957960;28;20637;-88
2021/08/02 07:51:20;;;;;;;3.10;2.27;;;18.90;99.90;;;;;;4962824;28;20629;-88
2021/08/02 07:53:46;;;;;;;1.90;1.77;;;19.00;99.90;;;;;;4966715;28;21200;-88
2021/08/02 07:56:13;;;;;;;2.20;1.90;;;19.10;99.90;;;;;;4964257;28;20667;-88
2021/08/02 07:58:40;;;;;;;3.47;1.90;;;19.20;99.90;;;;;;4959843;28;21042;-88
2021/08/02 08:01:07;;;;;;;3.77;2.50;;;19.30;99.90;;;;;;4966737;28;21006;-87
2021/08/02 08:03:34;;;;;;;4.03;2.20;;;19.40;99.90;;;;;;4964006;28;20645;-89
2021/08/02 08:06:02;;;;;;;2.27;2.07;;;19.40;99.90;;;;;;4960434;28;20633;-87
2021/08/02 08:08:28;;;;;;;3.00;1.70;;;19.50;99.90;;;;;;4956754;28;20665;-86
2021/08/02 08:10:55;;;;;;;2.97;2.37;;;19.50;99.90;;;;;;4960814;28;20668;-87
2021/08/02 08:13:22;;;;;;;2.77;1.80;;;19.60;99.90;;;;;;4959528;28;21209;-89
2021/08/02 08:15:48;;;;;;;3.33;1.67;;;19.70;99.90;;;;;;4968124;28;20640;-88
2021/08/02 08:18:15;;;;;;;9.20;2.03;;;19.80;99.90;;;;;;4961659;28;20662;-86
2021/08/02 08:20:42;;;;;;;2.73;2.37;;;19.90;99.90;;;;;;4965974;28;20633;-88
2021/08/02 08:23:10;;;;;;;2.63;2.07;;;19.90;99.90;;;;;;4960417;28;20626;-88
2021/08/02 08:25:37;;;;;;;1.83;1.70;;;20.10;99.90;;;;;;4965895;28;20642;-89
2021/08/02 08:28:04;;;;;;;2.40;1.80;;;20.20;99.90;;;;;;4960014;28;20673;-89
2021/08/02 08:30:31;;;;;;;9.30;2.00;;;20.20;99.90;;;;;;4961327;28;20651;-88
2021/08/02 08:32:58;;;;;;;4.00;1.73;;;20.20;99.90;;;;;;4962030;28;20617;-89
2021/08/02 08:35:25;;;;;;;3.20;1.60;;;20.30;99.90;;;;;;4965605;28;20633;-88
2021/08/02 08:37:52;;;;;;;7.03;1.83;;;20.30;99.90;;;;;;4964609;28;20713;-89
2021/08/02 08:40:20;;;;;;;3.60;1.70;;;20.30;99.90;;;;;;4959874;28;20641;-89
2021/08/02 08:42:49;;;;;;;1.83;1.60;;;20.40;99.90;;;;;;4962637;28;20716;-88
2021/08/02 08:45:16;;;;;;;2.30;1.90;;;20.40;99.90;;;;;;4963964;28;21193;-89
2021/08/02 08:47:44;;;;;;;2.27;1.40;;;20.50;99.90;;;;;;4965674;28;20654;-89
2021/08/02 08:50:11;;;;;;;3.20;1.83;;;20.50;99.90;;;;;;4964305;28;20705;-88
2021/08/02 08:52:39;;;;;;;2.07;1.47;;;20.50;99.90;;;;;;4958327;28;20645;-89
2021/08/02 08:55:07;;;;;;;1.83;1.50;;;20.50;99.90;;;;;;4964435;28;20633;-89
2021/08/02 08:57:36;;;;;;;1.90;1.60;;;20.70;99.90;;;;;;4958599;28;20686;-89
2021/08/02 09:00:05;;;;;;;3.20;1.50;;;20.80;99.90;;;;;;4959148;28;20619;-89
2021/08/02 09:02:32;;;;;;;1.80;1.60;;;20.90;99.90;;;;;;4962716;28;20657;-89
2021/08/02 09:05:00;;;;;;;4.50;1.30;;;21.10;99.90;;;;;;4964029;28;20728;-89
2021/08/02 09:07:37;;;;;;;2.57;1.37;;;21.20;99.90;;;;;;4962631;28;20724;-89
2021/08/02 09:10:06;;;;;;;2.50;1.40;;;21.20;99.90;;;;;;4965596;28;20626;-89
2021/08/02 09:12:33;;;;;;;2.97;1.30;;;21.40;99.90;;;;;;4963219;28;20629;-88
2021/08/02 09:15:05;;;;;;;2.17;1.43;;;21.70;99.90;;;;;;4965889;28;20642;-88
2021/08/02 09:17:34;;;;;;;3.00;1.20;;;21.90;99.90;;;;;;4962323;28;20739;-89
2021/08/02 09:20:02;;;;;;;1.97;1.30;;;22.00;99.90;;;;;;4960841;28;20598;-89
2021/08/02 09:22:31;;;;;;;4.83;1.73;;;21.90;99.90;;;;;;4959033;28;20645;-89
2021/08/02 09:25:12;;;;;;;4.10;1.80;;;22.00;99.90;;;;;;4964703;28;20977;-89
2021/08/02 09:27:40;;;;;;;1.50;1.40;;;22.00;99.90;;;;;;4962134;28;20688;-90
2021/08/02 09:30:18;;;;;;;4.43;1.97;;;22.10;99.90;;;;;;4960392;28;20653;-89
2021/08/02 09:32:46;;;;;;;1.43;1.07;;;22.10;99.90;;;;;;4964944;28;21168;-90
2021/08/02 09:35:13;;;;;;;2.00;1.10;;;22.10;99.90;;;;;;4965743;28;20630;-90
2021/08/02 09:37:40;;;;;;;1.47;1.37;;;22.30;99.90;;;;;;4962322;28;20686;-89
2021/08/02 09:40:08;;;;;;;2.13;1.00;;;22.30;99.90;;;;;;4969417;28;20644;-90
2021/08/02 09:42:35;;;;;;;3.20;1.50;;;22.40;99.90;;;;;;4968533;28;20633;-91
2021/08/02 09:45:04;;;;;;;2.20;1.70;;;22.40;99.90;;;;;;4967213;28;20636;-91
2021/08/02 09:47:32;;;;;;;3.83;1.40;;;22.40;99.90;;;;;;4961115;28;20646;-91
2021/08/02 09:49:58;;;;;;;1.23;1.13;;;22.60;99.90;;;;;;4967607;28;21697;-90
2021/08/02 09:52:25;;;;;;;1.90;1.40;;;22.70;99.90;;;;;;4964299;28;20589;-91
2021/08/02 09:55:01;;;;;;;1.53;1.43;;;22.70;99.90;;;;;;4962748;28;21189;-91
2021/08/02 09:57:30;;;;;;;1.70;1.60;;;22.80;99.90;;;;;;4969106;28;20689;-90
2021/08/02 09:59:58;;;;;;;2.47;1.20;;;22.80;99.90;;;;;;4965033;28;21824;-90
2021/08/02 10:02:25;;;;;;;1.33;1.23;;;22.80;99.90;;;;;;4968661;28;20640;-91
2021/08/02 10:04:54;;;;;;;1.50;1.40;;;22.90;99.90;;;;;;4967029;28;20630;-91
2021/08/02 10:07:22;;;;;;;1.53;1.10;;;23.00;99.90;;;;;;4969645;28;20641;-91
2021/08/02 10:09:49;;;;;;;2.70;1.70;;;23.00;99.90;;;;;;4967435;28;20649;-90
2021/08/02 10:12:16;;;;;;;2.33;1.50;;;23.10;99.90;;;;;;4964101;28;20610;-90
2021/08/02 10:14:43;;;;;;;1.73;1.60;;;23.20;99.90;;;;;;4966380;28;20622;-90
2021/08/02 10:17:11;;;;;;;2.20;1.67;;;23.40;99.90;;;;;;4967727;28;20737;-90
2021/08/02 10:19:39;;;;;;;2.20;1.43;;;23.50;99.90;;;;;;4968264;28;20644;-92
2021/08/02 10:22:09;;;;;;;3.33;1.30;;;23.50;99.90;;;;;;4961102;28;20721;-91
2021/08/02 10:24:47;;;;;;;3.20;1.60;;;23.50;99.90;;;;;;4970980;28;20708;-91
2021/08/02 10:27:24;;;;;;;1.30;1.10;;;23.60;99.90;;;;;;4968235;28;20661;-91
2021/08/02 10:29:51;;;;;;;4.30;1.30;;;23.90;99.90;;;;;;4965015;28;21399;-91
2021/08/02 10:32:22;;;;;;;5.30;1.17;;;24.10;99.90;;;;;;4966780;28;20630;-91
2021/08/02 10:34:53;;;;;;;1.70;1.20;;;24.30;99.90;;;;;;4967298;28;20625;-92
2021/08/02 10:37:32;;;;;;;1.53;1.30;;;24.70;99.10;;;;;;4961544;28;20682;-92
2021/08/02 10:40:03;;;;;;;1.50;1.20;;;24.90;96.30;;;;;;4967863;28;20617;-92
2021/08/02 10:42:30;;;;;;;1.43;1.33;;;25.00;95.20;;;;;;4963810;28;20996;-92
2021/08/02 10:44:58;;;;;;;1.33;1.23;;;25.10;95.00;;;;;;4967123;28;20644;-91
2021/08/02 10:47:37;;;;;;;1.07;1.07;;;25.20;94.10;;;;;;4963333;28;21211;-91
2021/08/02 10:50:05;;;;;;;1.23;1.10;;;25.10;93.60;;;;;;4965549;28;20622;-92
2021/08/02 10:52:33;;;;;;;3.53;1.37;;;24.80;97.50;;;;;;4969446;28;20630;-91
2021/08/02 10:55:02;;;;;;;2.27;1.50;;;24.30;99.90;;;;;;4962420;28;20993;-91
2021/08/02 10:57:29;;;;;;;1.37;1.27;;;24.00;99.90;;;;;;4964538;28;20709;-91
2021/08/02 10:59:55;;;;;;;1.40;1.30;;;23.80;99.90;;;;;;4966356;28;20655;-92
2021/08/02 11:02:23;;;;;;;1.23;1.07;;;23.70;99.90;;;;;;4964403;28;20642;-92
2021/08/02 11:04:54;;;;;;;1.07;1.00;;;23.60;99.90;;;;;;4962983;28;20632;-93
2021/08/02 11:07:22;;;;;;;2.27;1.40;;;23.50;99.90;;;;;;4966077;28;21078;-91
2021/08/02 11:09:51;;;;;;;2.23;1.20;;;23.70;99.90;;;;;;4968635;28;20969;-91
2021/08/02 11:12:18;;;;;;;2.40;1.33;;;24.30;99.90;;;;;;4969663;28;20617;-93
2021/08/02 11:14:50;;;;;;;4.77;1.20;;;24.50;99.90;;;;;;4965330;28;20636;-93
2021/08/02 11:17:17;;;;;;;1.27;1.17;;;24.90;99.90;;;;;;4960121;28;20771;-92
2021/08/02 11:19:45;;;;;;;0.83;0.83;;;25.50;97.80;;;;;;4963557;28;20912;-92
2021/08/02 11:22:13;;;;;;;1.27;1.07;;;25.60;94.20;;;;;;4968034;28;20637;-91
2021/08/02 11:24:54;;;;;;;1.10;1.00;;;25.70;95.40;;;;;;4963889;28;20646;-92
2021/08/02 11:27:21;;;;;;;1.13;0.93;;;25.80;95.70;;;;;;4967364;28;21024;-92
2021/08/02 11:29:49;;;;;;;1.37;1.27;;;25.50;95.10;;;;;;4967502;28;21267;-92
2021/08/02 11:32:17;;;;;;;4.17;1.33;;;25.00;96.80;;;;;;4963663;28;20744;-92
2021/08/02 11:34:46;;;;;;;2.60;1.03;;;24.30;96.90;;;;;;4964771;28;20642;-93
2021/08/02 11:37:14;;;;;;;1.10;0.83;;;23.80;99.90;;;;;;4960824;28;21220;-92
2021/08/02 11:39:43;;;;;;;2.33;1.30;;;23.30;99.90;;;;;;4967176;28;20626;-92
2021/08/02 11:42:12;;;;;;;1.93;1.30;;;22.80;99.90;;;;;;4967181;28;20653;-92
2021/08/02 11:44:43;;;;;;;1.07;0.90;;;22.50;99.90;;;;;;4963774;28;20633;-93
2021/08/02 11:47:12;;;;;;;1.60;1.00;;;22.20;99.90;;;;;;4965703;28;20712;-92
2021/08/02 11:49:40;;;;;;;1.10;0.80;;;22.00;99.90;;;;;;4961784;28;20658;-93
2021/08/02 11:52:08;;;;;;;1.23;1.13;;;21.90;99.90;;;;;;4963161;28;20633;-92
2021/08/02 11:54:36;;;;;;;1.90;1.17;;;21.80;99.90;;;;;;4959694;28;20665;-91
2021/08/02 11:57:21;;;;;;;1.23;1.00;;;21.80;99.90;;;;;;4973822;28;20634;-96
2021/08/02 12:18:38;;;;;;;1.00;1.00;;;27.40;91.10;;;;;;4952760;23;20680;-96
2021/08/02 12:21:22;;;;;;;1.30;1.20;;;28.10;89.90;;;;;;4934478;29;20646;-96
2021/08/02 14:13:20;;;;;;;1.57;0.83;;;30.60;65.10;;;;;;5406541;23;20682;-96
2021/08/02 14:15:56;;;;;;;1.37;0.80;;;31.60;64.70;;;;;;4955792;28;20637;-95
2021/08/02 14:18:32;;;;;;;1.50;0.80;;;32.20;65.00;;;;;;4946442;28;21148;-92
2021/08/02 14:20:59;;;;;;;1.17;0.97;;;32.90;63.00;;;;;;4936196;28;20643;-94
2021/08/02 14:23:27;;;;;;;0.80;0.80;;;33.00;62.60;;;;;;4940813;28;20634;-92
2021/08/02 14:25:54;;;;;;;1.93;1.20;;;33.10;61.30;;;;;;4943389;28;20631;-94
2021/08/02 14:28:23;;;;;;;2.50;1.20;;;32.90;61.80;;;;;;4946297;28;20769;-92
2021/08/02 14:30:51;;;;;;;1.30;1.20;;;32.60;59.50;;;;;;4947785;28;20621;-93
2021/08/02 14:33:18;;;;;;;2.77;2.57;;;31.90;61.00;;;;;;4945286;28;20626;-92
2021/08/02 14:35:45;;;;;;;1.40;1.30;;;31.10;62.90;;;;;;4944985;28;20650;-93
2021/08/02 14:38:15;;;;;;;2.80;1.20;;;30.30;64.50;;;;;;4947124;28;20681;-94
2021/08/02 14:40:46;;;;;;;2.50;1.30;;;29.20;67.20;;;;;;4944684;28;20620;-92
2021/08/02 14:43:18;;;;;;;1.53;1.40;;;28.70;69.60;;;;;;4947494;28;20623;-90
2021/08/02 14:45:47;;;;;;;1.53;1.33;;;28.00;74.70;;;;;;4947119;28;21213;-93
2021/08/02 14:48:14;;;;;;;1.30;1.20;;;27.40;78.50;;;;;;4946041;28;21243;-94
2021/08/02 14:50:43;;;;;;;1.60;1.20;;;27.00;82.80;;;;;;4949304;28;20633;-93
2021/08/02 14:53:13;;;;;;;2.10;1.43;;;26.70;87.30;;;;;;4947001;28;20641;-93
2021/08/02 14:55:41;;;;;;;2.50;1.47;;;26.50;91.40;;;;;;4947011;28;20818;-93
2021/08/02 14:58:09;;;;;;;1.73;1.40;;;26.50;93.30;;;;;;4942541;28;20696;-93
2021/08/02 15:00:37;;;;;;;1.50;1.03;;;26.40;92.50;;;;;;4949745;28;20641;-94
2021/08/02 15:03:07;;;;;;;1.60;1.40;;;26.40;90.60;;;;;;4942700;28;20639;-94
2021/08/02 15:05:35;;;;;;;3.27;1.57;;;26.30;93.40;;;;;;4949335;28;20639;-94